Terminal Aerodrome Forecast
Issued by NWS

Home | Current Version | Previous Version | Text Only | Print | Product List | Glossary Off
Versions: 1 2 3 4 5 6 7 8 9 10 11 12 13

655
FTUS43 KMPX 151134
TAFRNH
TAF
KRNH 151134Z 1512/1612 33012KT 5SM -SN SCT025 OVC035
     FM151400 33012G18KT 4SM -SN OVC025
     FM151800 33013G18KT 1 1/2SM -SN BR OVC012
     FM160600 33010KT 5SM -SN OVC025=

USA.gov is the U.S. government's official web portal to all federal, state and local government web resources and services.